Time;durP1;ratioP1;P1;durP2;ratioP2;P2;SDS_P1;SDS_P2;PMS_P1;PMS_P2;Temp;Humidity;BMP_temperature;BMP_pressure;BME280_temperature;BME280_humidity;BME280_pressure;Samples;Min_cycle;Max_cycle;Signal;HPM_P1;HPM_P2
2022/12/13 00:01:40;;;;;;;1.45;1.27;;;;;;;16.98;25.28;98711.00;5032398;28;20029;-91
2022/12/13 00:04:06;;;;;;;4.07;1.33;;;;;;;16.94;25.21;98701.03;5021784;28;20024;-92
2022/12/13 00:06:32;;;;;;;1.50;1.23;;;;;;;16.96;25.44;98704.28;5038170;28;20031;-92
2022/12/13 00:09:00;;;;;;;1.75;1.50;;;;;;;16.91;25.26;98691.59;5027501;28;20013;-93
2022/12/13 00:11:26;;;;;;;1.77;1.42;;;;;;;16.99;25.46;98695.63;5038120;28;20112;-92
2022/12/13 00:13:53;;;;;;;1.80;1.50;;;;;;;16.97;25.25;98697.78;5031256;28;20119;-92
2022/12/13 00:16:21;;;;;;;2.50;1.55;;;;;;;17.06;25.30;98688.88;5033615;28;20037;-92
2022/12/13 00:18:52;;;;;;;2.70;1.60;;;;;;;17.08;25.41;98681.31;5034090;28;20069;-93
2022/12/13 00:21:19;;;;;;;1.70;1.58;;;;;;;17.07;25.45;98679.72;5030712;28;20055;-92
2022/12/13 00:23:45;;;;;;;2.00;1.65;;;;;;;17.04;25.35;98680.25;5020280;28;20029;-92
2022/12/13 00:26:13;;;;;;;3.53;1.42;;;;;;;16.97;25.46;98663.53;5017075;28;20516;-93
2022/12/13 00:28:38;;;;;;;1.52;1.42;;;;;;;17.02;25.30;98660.81;5016974;28;20029;-91
2022/12/13 00:31:04;;;;;;;2.53;1.80;;;;;;;17.01;25.21;98659.19;5019192;28;20039;-93
2022/12/13 00:33:30;;;;;;;2.00;1.42;;;;;;;17.01;25.29;98663.78;5015216;28;20456;-93
2022/12/13 00:35:55;;;;;;;3.53;1.65;;;;;;;17.04;25.13;98666.75;5009629;28;20401;-93
2022/12/13 00:38:21;;;;;;;1.77;1.30;;;;;;;17.01;25.36;98653.00;5027928;28;20116;-93
2022/12/13 00:40:47;;;;;;;1.85;1.50;;;;;;;17.06;25.35;98661.88;5039698;28;20160;-93
2022/12/13 00:43:13;;;;;;;2.15;1.40;;;;;;;17.07;25.27;98647.31;5022914;28;20488;-93
2022/12/13 00:45:38;;;;;;;1.65;1.35;;;;;;;17.13;25.39;98652.72;5031343;28;20063;-93
2022/12/13 00:48:05;;;;;;;1.65;1.50;;;;;;;17.06;25.67;98656.50;5014127;28;20025;-92
2022/12/13 00:50:30;;;;;;;1.25;1.15;;;;;;;17.06;25.11;98634.91;5035116;28;20016;-93
2022/12/13 00:52:58;;;;;;;2.22;1.48;;;;;;;17.10;25.08;98634.34;5038694;28;20416;-93
2022/12/13 00:55:23;;;;;;;1.50;1.13;;;;;;;17.05;25.31;98633.28;5029232;28;20031;-92
2022/12/13 00:57:51;;;;;;;1.92;1.65;;;;;;;17.12;25.22;98618.69;5030166;28;20033;-92
2022/12/13 01:00:19;;;;;;;2.17;1.50;;;;;;;17.11;25.33;98623.28;5040702;28;20028;-92
2022/12/13 01:02:48;;;;;;;1.92;1.50;;;;;;;17.15;25.17;98618.97;5022366;28;20103;-93
2022/12/13 01:05:13;;;;;;;1.40;1.30;;;;;;;17.05;25.19;98622.47;5018318;28;20082;-93
2022/12/13 01:07:43;;;;;;;2.00;1.33;;;;;;;17.10;25.40;98623.56;5019348;28;20024;-93
2022/12/13 01:10:09;;;;;;;2.13;1.40;;;;;;;17.10;25.27;98623.56;5038336;28;20036;-91
2022/12/13 01:12:34;;;;;;;2.00;1.67;;;;;;;17.13;25.43;98620.31;5013582;28;20021;-93
2022/12/13 01:15:00;;;;;;;1.85;1.30;;;;;;;17.16;25.20;98625.97;5044565;28;20024;-93
2022/12/13 01:17:26;;;;;;;1.65;1.33;;;;;;;17.12;25.47;98616.00;5057525;28;20756;-93
2022/12/13 01:19:51;;;;;;;2.78;1.27;;;;;;;17.05;25.28;98595.50;5037785;28;20496;-92
2022/12/13 01:22:17;;;;;;;1.52;1.23;;;;;;;17.02;25.30;98600.63;5041152;28;20085;-92
2022/12/13 01:24:46;;;;;;;1.50;1.30;;;;;;;16.94;25.30;98588.50;5061208;28;20119;-92
2022/12/13 01:27:11;;;;;;;1.55;1.40;;;;;;;17.07;25.44;98612.25;5052865;28;20527;-92
2022/12/13 01:29:37;;;;;;;1.70;1.25;;;;;;;17.16;25.32;98603.56;5020026;28;20111;-92
2022/12/13 01:32:03;;;;;;;2.20;1.40;;;;;;;17.16;25.14;98590.06;5032040;28;20198;-92
2022/12/13 01:34:29;;;;;;;1.90;1.50;;;;;;;17.10;25.42;98580.38;5060069;28;20392;-93
2022/12/13 01:36:54;;;;;;;1.40;1.30;;;;;;;17.11;25.17;98581.97;5015536;28;20048;-92
2022/12/13 01:39:20;;;;;;;1.70;1.38;;;;;;;17.07;25.18;98585.25;5020041;28;20028;-93
2022/12/13 01:41:48;;;;;;;2.30;1.50;;;;;;;17.14;25.29;98586.84;5046518;28;20102;-93
2022/12/13 01:44:51;;;;;;;1.35;1.25;;;;;;;17.22;25.47;98594.38;5008699;28;20072;-92
2022/12/13 01:47:23;;;;;;;1.98;1.52;;;;;;;17.08;25.44;98578.75;5045549;28;20066;-92
2022/12/13 01:49:49;;;;;;;1.20;1.10;;;;;;;17.11;25.42;98579.28;5038272;28;20108;-92
2022/12/13 01:52:14;;;;;;;1.58;1.25;;;;;;;17.11;25.31;98565.78;5031739;28;20050;-92
2022/12/13 01:54:45;;;;;;;2.33;1.33;;;;;;;17.20;25.51;98580.34;5015535;28;20050;-92
2022/12/13 01:57:11;;;;;;;2.22;1.65;;;;;;;17.22;25.25;98578.19;5025421;28;20028;-93
2022/12/13 01:59:39;;;;;;;1.85;1.52;;;;;;;17.22;25.30;98570.88;5017530;28;20107;-92
2022/12/13 02:02:08;;;;;;;1.33;1.20;;;;;;;17.21;25.30;98557.66;5035751;28;20043;-92
2022/12/13 02:05:11;;;;;;;1.40;1.27;;;;;;;17.23;25.38;98569.81;5039008;28;20059;-92
2022/12/13 02:07:37;;;;;;;1.40;1.25;;;;;;;17.18;25.31;98560.94;5050200;28;20487;-92
2022/12/13 02:10:07;;;;;;;1.48;1.17;;;;;;;17.27;25.11;98565.47;5017274;28;20442;-91
2022/12/13 02:12:34;;;;;;;1.45;1.30;;;;;;;17.19;25.33;98555.22;5032118;28;20480;-92
2022/12/13 02:15:03;;;;;;;1.40;1.20;;;;;;;17.11;25.37;98538.78;5023924;28;20535;-93
2022/12/13 02:17:56;;;;;;;3.30;1.48;;;;;;;17.11;25.47;98536.09;5041229;28;20508;-92
2022/12/13 02:20:30;;;;;;;2.13;1.50;;;;;;;17.28;25.33;98558.16;5030005;28;20025;-92
2022/12/13 02:23:14;;;;;;;;;;;;;;;17.21;25.54;98554.94;5054273;28;20170;-93
2022/12/13 02:26:07;;;;;;;2.63;1.40;;;;;;;17.28;25.40;98550.06;5059206;28;19927;-92
2022/12/13 02:28:58;;;;;;;1.70;1.30;;;;;;;17.24;25.41;98538.22;5058293;28;20508;-92
2022/12/13 02:31:30;;;;;;;1.50;1.27;;;;;;;17.26;25.35;98539.56;5050925;28;20090;-93
2022/12/13 02:34:09;;;;;;;2.35;1.30;;;;;;;17.20;25.28;98526.38;5035093;28;20447;-93
2022/12/13 02:37:06;;;;;;;1.95;1.42;;;;;;;17.29;25.27;98537.38;5019676;28;20025;-93
2022/12/13 02:39:34;;;;;;;2.38;1.50;;;;;;;17.23;25.26;98520.38;5047287;28;20477;-92
2022/12/13 02:42:19;;;;;;;1.35;1.23;;;;;;;17.27;25.28;98521.47;5033983;28;20031;-93
2022/12/13 02:45:15;;;;;;;2.55;1.10;;;;;;;17.27;25.46;98516.06;5033524;28;20044;-93
2022/12/13 02:47:42;;;;;;;1.60;1.10;;;;;;;17.25;25.45;98519.03;5033663;28;20052;-92
2022/12/13 02:50:08;;;;;;;1.40;1.30;;;;;;;17.27;25.44;98527.66;5032804;28;20024;-92
2022/12/13 02:52:33;;;;;;;1.33;1.23;;;;;;;17.33;25.37;98514.94;5023140;28;20451;-94
2022/12/13 02:54:59;;;;;;;1.58;1.40;;;;;;;17.18;25.35;98490.75;5020160;28;20029;-92
2022/12/13 02:57:37;;;;;;;1.70;1.50;;;;;;;17.25;25.24;98505.53;5030635;28;20507;-92
2022/12/13 03:00:07;;;;;;;1.45;1.20;;;;;;;17.30;25.34;98504.72;5045021;28;20039;-93
2022/12/13 03:02:39;;;;;;;1.80;1.30;;;;;;;17.27;25.32;98507.97;5059551;28;20450;-93
2022/12/13 03:08:00;;;;;;;1.60;1.27;;;;;;;17.32;25.26;98502.53;5048998;28;20231;-93
2022/12/13 03:10:32;;;;;;;1.85;1.30;;;;;;;17.17;25.39;98489.13;5055634;28;20048;-93
2022/12/13 03:15:55;;;;;;;2.05;1.27;;;;;;;17.29;25.54;98483.41;5040313;28;20027;-93
2022/12/13 03:18:21;;;;;;;1.98;1.10;;;;;;;17.26;25.45;98471.25;5028158;28;20075;-93
2022/12/13 03:20:55;;;;;;;1.50;1.20;;;;;;;17.34;25.46;98481.47;5042349;28;20113;-93
2022/12/13 03:23:21;;;;;;;1.33;1.17;;;;;;;17.22;25.07;98457.50;5037066;28;20029;-93
2022/12/13 03:25:53;;;;;;;2.00;1.20;;;;;;;17.41;25.30;98481.97;5017316;28;20136;-94
2022/12/13 03:28:19;;;;;;;1.48;1.30;;;;;;;17.36;25.38;98475.78;5016171;28;20025;-92
2022/12/13 03:30:54;;;;;;;2.05;1.40;;;;;;;17.29;25.44;98470.69;5053010;28;20132;-92
2022/12/13 03:33:20;;;;;;;1.38;1.27;;;;;;;17.12;25.28;98432.47;5037886;28;20043;-92
2022/12/13 03:35:46;;;;;;;1.40;1.30;;;;;;;17.31;25.31;98468.53;5022581;28;20497;-91
2022/12/13 03:38:12;;;;;;;1.85;1.40;;;;;;;17.33;25.37;98465.53;5019058;28;20039;-92
2022/12/13 03:40:38;;;;;;;2.10;1.38;;;;;;;17.32;25.51;98458.56;5021376;28;20424;-92
2022/12/13 03:43:04;;;;;;;1.20;1.10;;;;;;;17.18;25.48;98431.38;5034128;28;20175;-92
2022/12/13 03:45:30;;;;;;;1.25;1.15;;;;;;;17.23;25.53;98440.22;5063632;28;20103;-92
2022/12/13 03:47:58;;;;;;;1.52;1.23;;;;;;;17.36;25.50;98465.78;5062732;28;20576;-93
2022/12/13 03:50:23;;;;;;;2.00;1.40;;;;;;;17.39;25.41;98454.44;5054980;28;20036;-93
2022/12/13 03:52:52;;;;;;;1.50;1.10;;;;;;;17.32;25.58;98448.53;5058553;28;20021;-92
2022/12/13 03:55:17;;;;;;;2.00;1.55;;;;;;;17.31;25.64;98451.53;5026196;28;20021;-92
2022/12/13 03:57:43;;;;;;;2.67;1.48;;;;;;;17.33;25.50;98433.16;5031383;28;20031;-93
2022/12/13 04:00:09;;;;;;;1.63;1.45;;;;;;;17.34;25.25;98422.06;5019816;28;20107;-93
2022/12/13 04:02:35;;;;;;;1.73;1.25;;;;;;;17.30;25.46;98426.44;5041140;28;20531;-93
2022/12/13 04:05:04;;;;;;;1.27;1.13;;;;;;;17.41;25.32;98430.66;5011441;28;20130;-93
2022/12/13 04:07:32;;;;;;;2.22;1.48;;;;;;;17.47;25.50;98439.53;5034765;28;20021;-93
2022/12/13 04:09:58;;;;;;;1.30;1.20;;;;;;;17.43;25.39;98431.19;5025796;28;20493;-92
2022/12/13 04:15:08;;;;;;;1.77;1.38;;;;;;;17.39;25.46;98432.03;5040205;28;20062;-93
2022/12/13 04:17:33;;;;;;;1.20;1.10;;;;;;;17.36;25.49;98422.59;5021119;28;20068;-93
2022/12/13 04:19:59;;;;;;;2.38;1.33;;;;;;;17.35;25.37;98415.59;5034476;28;20404;-93
2022/12/13 04:22:25;;;;;;;1.50;1.17;;;;;;;17.36;25.39;98417.19;5041167;28;20035;-93
2022/12/13 04:24:50;;;;;;;1.20;1.10;;;;;;;17.37;25.47;98415.31;5015404;28;20035;-93
2022/12/13 04:27:16;;;;;;;1.20;1.10;;;;;;;17.31;25.47;98395.63;5035906;28;20071;-92
2022/12/13 04:29:42;;;;;;;4.60;1.67;;;;;;;17.30;25.71;98395.91;5034806;28;20032;-92
2022/12/13 04:32:07;;;;;;;1.38;1.27;;;;;;;17.43;25.41;98406.88;5037483;28;20059;-93
2022/12/13 04:34:33;;;;;;;1.90;1.30;;;;;;;17.35;25.62;98398.56;5024415;28;20064;-93
2022/12/13 04:36:58;;;;;;;1.45;1.35;;;;;;;17.41;25.54;98397.47;5020743;28;20032;-93
2022/12/13 04:39:26;;;;;;;1.63;1.20;;;;;;;17.36;25.37;98395.59;5018807;28;20024;-92
2022/12/13 04:41:52;;;;;;;1.58;1.25;;;;;;;17.39;25.64;98392.34;5032316;28;20025;-93
2022/12/13 04:44:18;;;;;;;2.00;1.20;;;;;;;17.39;25.27;98388.84;5016549;28;20040;-91
2022/12/13 04:46:46;;;;;;;1.02;0.93;;;;;;;17.42;25.35;98386.38;5018801;28;20497;-93
2022/12/13 04:49:12;;;;;;;1.27;1.13;;;;;;;17.38;25.50;98390.72;5014043;28;20530;-92
2022/12/13 04:51:37;;;;;;;3.10;1.38;;;;;;;17.32;25.44;98359.44;5024930;28;20033;-93
2022/12/13 04:54:03;;;;;;;3.50;1.58;;;;;;;17.33;25.21;98368.34;5020724;28;20124;-92
2022/12/13 04:56:29;;;;;;;1.23;1.00;;;;;;;17.35;25.45;98361.59;5057436;28;20389;-92
2022/12/13 04:58:54;;;;;;;1.52;1.42;;;;;;;17.33;25.38;98352.94;5052723;28;20052;-92
2022/12/13 05:01:20;;;;;;;2.13;1.17;;;;;;;17.32;25.52;98337.84;5051240;28;20042;-93
2022/12/13 05:03:46;;;;;;;1.77;1.23;;;;;;;17.44;25.57;98351.00;5055241;28;20128;-93
2022/12/13 05:06:12;;;;;;;1.50;1.30;;;;;;;17.43;25.50;98363.66;5047124;28;20044;-92
2022/12/13 05:08:38;;;;;;;1.98;1.52;;;;;;;17.44;25.51;98354.50;5041443;28;20036;-93
2022/12/13 05:11:04;;;;;;;1.30;1.20;;;;;;;17.43;25.43;98355.56;5047797;28;20340;-93
2022/12/13 05:13:30;;;;;;;1.80;1.23;;;;;;;17.51;25.47;98353.38;5012820;28;20024;-92
2022/12/13 05:16:00;;;;;;;1.30;1.20;;;;;;;17.44;25.54;98359.91;5039045;28;20502;-92
2022/12/13 05:18:28;;;;;;;1.42;1.23;;;;;;;17.52;25.44;98360.38;5038783;28;20024;-93
2022/12/13 05:20:54;;;;;;;1.60;1.35;;;;;;;17.48;25.55;98348.53;5014986;28;20033;-92
2022/12/13 05:23:21;;;;;;;3.83;1.25;;;;;;;17.49;25.53;98358.22;5037447;28;20385;-93
2022/12/13 05:25:48;;;;;;;1.52;1.30;;;;;;;17.44;25.61;98349.09;5016010;28;20085;-92
2022/12/13 05:28:14;;;;;;;1.23;1.10;;;;;;;17.48;25.64;98348.53;5030584;28;20021;-93
2022/12/13 05:30:42;;;;;;;1.92;1.30;;;;;;;17.42;25.72;98351.28;5017100;28;20488;-93
2022/12/13 05:33:11;;;;;;;1.75;1.20;;;;;;;17.39;25.53;98335.63;5023393;28;20052;-93
2022/12/13 05:35:36;;;;;;;1.63;1.23;;;;;;;17.43;25.65;98336.66;5025106;28;20024;-92
2022/12/13 05:38:05;;;;;;;1.98;1.60;;;;;;;17.43;25.65;98320.47;5023759;28;20119;-91
2022/12/13 05:40:34;;;;;;;1.85;1.23;;;;;;;17.48;25.30;98316.13;5013855;28;20033;-93
2022/12/13 05:43:02;;;;;;;2.10;1.40;;;;;;;17.51;25.59;98310.97;5014286;28;20029;-93
2022/12/13 05:45:31;;;;;;;1.27;1.17;;;;;;;17.39;25.70;98308.63;5033676;28;20500;-92
2022/12/13 05:47:57;;;;;;;1.38;1.27;;;;;;;17.49;25.53;98312.31;5033465;28;20348;-93
2022/12/13 05:50:22;;;;;;;1.42;1.20;;;;;;;17.46;25.50;98330.72;5024250;28;20493;-93
2022/12/13 05:52:51;;;;;;;2.15;1.55;;;;;;;17.49;25.79;98328.53;5013389;28;20033;-93
2022/12/13 05:55:16;;;;;;;1.85;1.38;;;;;;;17.44;25.70;98311.28;5031579;28;20056;-93
2022/12/13 05:57:42;;;;;;;2.13;1.60;;;;;;;17.53;25.53;98316.88;5026821;28;20059;-93
2022/12/13 06:00:09;;;;;;;1.92;1.30;;;;;;;17.55;25.52;98322.00;5019120;28;20182;-93
2022/12/13 06:02:38;;;;;;;1.40;1.20;;;;;;;17.55;25.47;98313.91;5016934;28;20021;-93
2022/12/13 06:05:04;;;;;;;1.20;1.00;;;;;;;17.48;25.55;98308.03;5023077;28;20354;-93
2022/12/13 06:07:30;;;;;;;2.53;1.33;;;;;;;17.41;25.67;98305.66;5013340;28;20172;-91
2022/12/13 06:09:59;;;;;;;1.45;1.17;;;;;;;17.48;25.63;98314.22;5025571;28;20032;-92
2022/12/13 06:12:24;;;;;;;1.38;1.20;;;;;;;17.27;25.83;98278.50;5013483;28;20025;-92
2022/12/13 06:14:50;;;;;;;1.35;1.10;;;;;;;17.53;25.65;98314.19;5039763;28;20032;-92
2022/12/13 06:17:16;;;;;;;1.88;1.30;;;;;;;17.49;25.35;98306.91;5037551;28;20135;-93
2022/12/13 06:19:41;;;;;;;1.33;1.23;;;;;;;17.53;25.77;98299.88;5014929;28;20037;-93
2022/12/13 06:22:07;;;;;;;1.67;1.33;;;;;;;17.45;25.77;98296.72;5054211;28;20060;-93
2022/12/13 06:24:33;;;;;;;2.55;1.63;;;;;;;17.49;25.78;98285.31;5050742;28;20049;-93
2022/12/13 06:26:59;;;;;;;2.40;1.48;;;;;;;17.58;25.60;98300.63;5054678;28;20048;-92
2022/12/13 06:29:24;;;;;;;2.25;1.30;;;;;;;17.49;25.62;98279.91;5053479;28;20024;-93
2022/12/13 06:31:57;;;;;;;1.33;1.20;;;;;;;17.52;25.60;98285.56;5037455;28;20140;-93
2022/12/13 06:34:23;;;;;;;2.05;1.50;;;;;;;17.59;25.52;98298.72;5062918;28;20090;-93
2022/12/13 06:36:48;;;;;;;1.85;1.20;;;;;;;17.55;25.72;98285.00;5051008;28;20441;-93
2022/12/13 06:39:17;;;;;;;1.35;1.23;;;;;;;17.60;25.70;98297.66;5064375;28;20605;-93
2022/12/13 06:41:42;;;;;;;1.40;1.30;;;;;;;17.50;25.64;98285.03;5057156;28;20432;-93
2022/12/13 06:44:08;;;;;;;1.63;1.20;;;;;;;17.50;25.60;98281.53;5064740;28;20039;-93
2022/12/13 06:46:33;;;;;;;2.50;1.48;;;;;;;17.58;25.66;98294.44;5064636;28;20115;-93
2022/12/13 06:49:00;;;;;;;2.15;1.40;;;;;;;17.48;25.82;98279.13;5055656;28;20325;-93
2022/12/13 06:51:25;;;;;;;1.73;1.42;;;;;;;17.51;25.59;98283.16;5018913;28;20520;-93
2022/12/13 06:53:51;;;;;;;1.60;1.30;;;;;;;17.59;25.73;98279.81;5051121;28;20040;-93
2022/12/13 06:56:17;;;;;;;2.72;1.20;;;;;;;17.53;25.79;98270.19;5055286;28;20103;-93
2022/12/13 06:58:42;;;;;;;1.83;1.20;;;;;;;17.55;25.75;98268.00;5063078;28;20520;-93
2022/12/13 07:01:10;;;;;;;2.13;1.40;;;;;;;17.61;25.80;98272.25;5057992;28;20050;-92
2022/12/13 07:03:35;;;;;;;1.38;1.20;;;;;;;17.54;25.89;98272.59;5064683;28;20160;-93
2022/12/13 07:06:11;;;;;;;1.80;1.40;;;;;;;17.68;25.64;98275.44;5038391;28;20436;-93
2022/12/13 07:08:37;;;;;;;1.95;1.40;;;;;;;17.55;25.66;98265.28;5033917;28;20029;-93
2022/12/13 07:11:02;;;;;;;1.73;1.45;;;;;;;17.58;25.90;98270.13;5033336;28;20322;-93
2022/12/13 07:13:29;;;;;;;1.38;1.20;;;;;;;17.57;25.72;98271.22;5018350;28;20033;-94
2022/12/13 07:15:55;;;;;;;2.17;1.33;;;;;;;17.59;25.80;98263.63;5018890;28;20029;-93
2022/12/13 07:18:21;;;;;;;1.42;1.10;;;;;;;17.55;25.97;98268.00;5049189;28;20028;-93
2022/12/13 07:20:47;;;;;;;1.83;1.30;;;;;;;17.70;26.08;98269.75;5021789;28;20029;-93
2022/12/13 07:23:12;;;;;;;1.65;1.30;;;;;;;17.53;26.00;98237.78;5010634;28;21172;-93
2022/12/13 07:25:38;;;;;;;1.45;1.27;;;;;;;17.58;25.80;98251.22;5039300;28;20503;-92
2022/12/13 07:28:06;;;;;;;2.13;1.30;;;;;;;17.63;25.84;98270.88;5038819;28;20118;-91
2022/12/13 07:30:32;;;;;;;2.55;1.50;;;;;;;17.67;26.00;98267.59;5032269;28;20028;-91
2022/12/13 07:32:59;;;;;;;1.85;1.30;;;;;;;17.60;25.91;98249.81;5011800;28;20128;-92
2022/12/13 07:35:24;;;;;;;1.48;1.33;;;;;;;17.69;25.97;98252.72;5041524;28;20082;-92
2022/12/13 07:37:50;;;;;;;1.88;1.20;;;;;;;17.56;26.01;98248.00;5019884;28;20020;-93
2022/12/13 07:40:16;;;;;;;1.70;1.50;;;;;;;17.66;26.11;98258.72;5017533;28;20032;-93
2022/12/13 07:42:51;;;;;;;1.80;1.40;;;;;;;17.62;25.94;98238.75;5062851;28;20078;-92
2022/12/13 07:45:16;;;;;;;2.08;1.30;;;;;;;17.70;25.95;98242.72;5045805;28;20032;-93
2022/12/13 07:47:42;;;;;;;2.17;1.60;;;;;;;17.60;25.99;98217.41;5050928;28;20457;-92
2022/12/13 07:50:08;;;;;;;1.73;1.20;;;;;;;17.63;25.95;98237.66;5063164;28;20034;-92
2022/12/13 07:52:33;;;;;;;1.70;1.40;;;;;;;17.65;25.92;98236.28;5019459;28;20384;-92
2022/12/13 07:54:59;;;;;;;1.33;1.20;;;;;;;17.72;26.13;98244.03;5034439;28;20436;-92
2022/12/13 07:57:25;;;;;;;1.73;1.50;;;;;;;17.65;26.07;98238.19;5063340;28;20486;-92
2022/12/13 07:59:50;;;;;;;1.40;1.30;;;;;;;17.75;25.97;98235.38;5062959;28;20056;-92
2022/12/13 08:02:16;;;;;;;1.80;1.25;;;;;;;17.60;26.14;98227.44;5058884;28;20025;-93
2022/12/13 08:04:42;;;;;;;2.75;1.60;;;;;;;17.69;26.08;98224.91;5053989;28;20063;-92
2022/12/13 08:07:09;;;;;;;2.08;1.52;;;;;;;17.67;26.07;98229.78;5018955;28;20033;-93
2022/12/13 08:09:35;;;;;;;1.85;1.30;;;;;;;17.66;26.12;98215.50;5028010;28;20107;-93
2022/12/13 08:12:01;;;;;;;2.85;1.23;;;;;;;17.66;26.22;98226.28;5030703;28;20104;-93
2022/12/13 08:14:26;;;;;;;1.98;1.40;;;;;;;17.69;26.12;98222.19;5062691;28;20028;-93
2022/12/13 08:16:53;;;;;;;1.95;1.50;;;;;;;17.60;26.15;98217.41;5028728;28;20032;-92
2022/12/13 08:19:18;;;;;;;2.22;1.40;;;;;;;17.71;26.16;98220.81;5037883;28;20032;-92
2022/12/13 08:21:44;;;;;;;2.28;1.33;;;;;;;17.60;25.99;98211.22;5036186;28;20500;-92
2022/12/13 08:24:10;;;;;;;1.85;1.52;;;;;;;17.69;26.13;98211.38;5045708;28;20151;-92
2022/12/13 08:26:35;;;;;;;1.48;1.30;;;;;;;17.65;26.24;98209.25;5046718;28;20400;-92
2022/12/13 08:29:01;;;;;;;1.58;1.30;;;;;;;17.72;26.25;98219.72;5041020;28;20145;-92
2022/12/13 08:31:29;;;;;;;2.95;1.63;;;;;;;17.66;26.31;98210.09;5021510;28;20082;-92
2022/12/13 08:33:54;;;;;;;1.80;1.38;;;;;;;17.64;26.20;98196.88;5020939;28;20033;-93
2022/12/13 08:36:23;;;;;;;1.83;1.40;;;;;;;17.45;26.23;98191.41;5052118;28;20074;-93
2022/12/13 08:38:49;;;;;;;2.15;1.40;;;;;;;17.67;26.23;98197.38;5061341;28;20477;-92
2022/12/13 08:41:15;;;;;;;1.60;1.30;;;;;;;17.60;26.47;98190.41;5021483;28;20028;-92
2022/12/13 08:43:40;;;;;;;1.65;1.50;;;;;;;17.64;26.36;98196.88;5022752;28;20056;-92
2022/12/13 08:46:06;;;;;;;1.45;1.33;;;;;;;17.78;26.25;98212.34;5045547;28;20119;-93
2022/12/13 08:48:32;;;;;;;2.08;1.40;;;;;;;17.72;26.29;98191.91;5042199;28;20017;-92
2022/12/13 08:51:06;;;;;;;2.17;1.27;;;;;;;17.58;26.39;98186.41;5035188;28;20314;-93
2022/12/13 08:53:34;;;;;;;1.73;1.42;;;;;;;17.62;26.29;98185.53;5020308;28;20029;-93
2022/12/13 08:56:06;;;;;;;1.73;1.30;;;;;;;17.69;26.50;98203.28;5052551;28;20093;-92
2022/12/13 08:58:31;;;;;;;1.83;1.38;;;;;;;17.57;26.39;98173.97;5037429;28;20028;-93
2022/12/13 09:01:00;;;;;;;2.33;1.40;;;;;;;17.56;26.26;98148.88;5034476;28;20029;-93
2022/12/13 09:03:26;;;;;;;1.70;1.42;;;;;;;17.56;26.19;98151.56;5053684;28;20534;-93
2022/12/13 09:05:52;;;;;;;1.88;1.40;;;;;;;17.77;26.21;98178.34;5033241;28;20033;-93
2022/12/13 09:08:18;;;;;;;1.85;1.30;;;;;;;17.75;26.29;98181.34;5049453;28;20107;-93
2022/12/13 09:10:55;;;;;;;1.48;1.33;;;;;;;17.63;26.17;98162.03;5058506;28;20099;-93
2022/12/13 09:13:21;;;;;;;1.73;1.30;;;;;;;17.63;26.47;98160.13;5043860;28;20112;-93
2022/12/13 09:15:46;;;;;;;1.75;1.30;;;;;;;17.63;26.56;98159.34;5022570;28;20115;-93
2022/12/13 09:18:12;;;;;;;2.08;1.40;;;;;;;17.68;26.40;98172.78;5053982;28;20021;-93
2022/12/13 09:20:39;;;;;;;1.55;1.20;;;;;;;17.72;26.51;98184.59;5043971;28;20055;-93
2022/12/13 09:23:08;;;;;;;1.92;1.30;;;;;;;17.58;26.34;98164.78;5057922;28;20485;-93
2022/12/13 09:25:34;;;;;;;2.08;1.20;;;;;;;17.63;26.39;98162.03;5043168;28;20063;-93
2022/12/13 09:28:02;;;;;;;1.60;1.30;;;;;;;17.66;26.35;98166.88;5061268;28;20028;-93
2022/12/13 09:30:28;;;;;;;1.70;1.40;;;;;;;17.63;26.41;98162.03;5059189;28;20032;-93
2022/12/13 09:32:55;;;;;;;1.83;1.40;;;;;;;17.52;26.41;98152.44;5058636;28;20052;-93
2022/12/13 09:35:20;;;;;;;1.98;1.35;;;;;;;17.64;26.44;98166.31;5061331;28;20056;-93
2022/12/13 09:37:46;;;;;;;1.35;1.20;;;;;;;17.72;26.48;98170.31;5050812;28;20112;-93
2022/12/13 09:40:19;;;;;;;2.17;1.48;;;;;;;17.68;26.67;98158.44;5059959;28;20028;-93
2022/12/13 09:43:08;;;;;;;1.77;1.30;;;;;;;17.62;26.40;98138.81;5035240;28;20387;-93
2022/12/13 09:45:35;;;;;;;1.90;1.50;;;;;;;17.59;26.44;98140.22;5019745;28;20044;-94
2022/12/13 09:48:03;;;;;;;1.45;1.27;;;;;;;17.52;26.58;98128.13;5020756;28;20047;-93
2022/12/13 09:50:32;;;;;;;2.28;1.45;;;;;;;17.64;26.49;98136.63;5018177;28;20029;-91
2022/12/13 09:53:08;;;;;;;2.05;1.65;;;;;;;17.34;26.60;98108.91;5008257;28;20110;-93
2022/12/13 09:55:38;;;;;;;1.55;1.40;;;;;;;17.56;26.78;98140.78;5045669;28;20500;-93
2022/12/13 09:58:33;;;;;;;2.03;1.50;;;;;;;17.77;26.55;98156.72;5029709;28;20025;-93
2022/12/13 10:00:59;;;;;;;1.60;1.40;;;;;;;17.71;26.51;98152.47;5021428;28;20048;-93
2022/12/13 10:03:25;;;;;;;1.92;1.40;;;;;;;17.75;26.69;98165.13;5038348;28;20327;-93
2022/12/13 10:05:59;;;;;;;1.75;1.50;;;;;;;17.54;26.71;98126.75;5026403;28;20039;-93
2022/12/13 10:08:34;;;;;;;1.67;1.35;;;;;;;17.73;26.68;98156.50;5038679;28;20461;-93
2022/12/13 10:11:00;;;;;;;1.30;1.17;;;;;;;17.61;26.89;98140.72;5034573;28;20025;-93
2022/12/13 10:13:25;;;;;;;1.83;1.38;;;;;;;17.69;26.62;98144.66;5023854;28;20078;-93
2022/12/13 10:15:58;;;;;;;1.70;1.30;;;;;;;17.74;26.69;98152.69;5042945;28;20040;-94
2022/12/13 10:18:42;;;;;;;1.92;1.20;;;;;;;17.73;26.79;98140.31;5032510;28;20682;-93
2022/12/13 10:21:13;;;;;;;2.47;1.23;;;;;;;17.67;26.33;98130.66;5036989;28;20040;-93
2022/12/13 10:23:38;;;;;;;2.03;1.55;;;;;;;17.61;26.69;98134.53;5036515;28;20405;-94
2022/12/13 10:26:09;;;;;;;1.90;1.30;;;;;;;17.57;26.86;98128.06;5050519;28;20032;-93
2022/12/13 10:28:35;;;;;;;2.08;1.45;;;;;;;17.65;26.83;98130.13;5048929;28;20038;-94
2022/12/13 10:31:00;;;;;;;1.38;1.20;;;;;;;17.69;26.83;98146.56;5036263;28;20025;-94
2022/12/13 10:33:31;;;;;;;2.22;1.77;;;;;;;17.73;26.77;98140.31;5047268;28;20033;-93
2022/12/13 10:36:08;;;;;;;1.30;1.20;;;;;;;17.72;26.61;98133.28;5031925;28;20033;-94
2022/12/13 10:38:36;;;;;;;2.38;1.50;;;;;;;17.56;26.78;98107.56;5022660;28;20579;-94
2022/12/13 10:41:01;;;;;;;2.60;1.63;;;;;;;17.60;26.81;98105.88;5049611;28;20103;-94
2022/12/13 10:43:29;;;;;;;1.52;1.33;;;;;;;17.68;26.91;98124.16;5055119;28;20021;-94
2022/12/13 10:45:54;;;;;;;1.65;1.40;;;;;;;17.71;26.75;98120.84;5029948;28;21674;-94
2022/12/13 10:48:22;;;;;;;2.47;1.40;;;;;;;17.65;26.86;98106.63;5055202;28;20048;-94
2022/12/13 10:50:59;;;;;;;1.40;1.30;;;;;;;17.63;26.90;98110.72;5048039;28;20105;-93
2022/12/13 10:53:28;;;;;;;1.60;1.38;;;;;;;17.43;26.91;98074.75;5039229;28;20460;-94
2022/12/13 10:55:54;;;;;;;1.40;1.27;;;;;;;17.73;26.85;98107.88;5031524;28;20017;-94
2022/12/13 10:58:20;;;;;;;2.00;1.50;;;;;;;17.57;26.84;98093.75;5037536;28;20083;-94
2022/12/13 11:00:46;;;;;;;1.60;1.40;;;;;;;17.64;26.90;98098.81;5054484;28;20159;-93
2022/12/13 11:03:26;;;;;;;1.17;1.08;;;;;;;17.62;26.82;98091.00;5042024;28;20025;-94
2022/12/13 11:06:02;;;;;;;1.92;1.45;;;;;;;17.54;26.85;98085.44;5034601;28;20029;-94
2022/12/13 11:08:29;;;;;;;1.50;1.40;;;;;;;17.66;27.01;98091.25;5021765;28;20083;-94
2022/12/13 11:11:02;;;;;;;2.45;1.50;;;;;;;17.62;27.21;98096.38;5053837;28;20605;-94
2022/12/13 11:13:39;;;;;;;1.95;1.23;;;;;;;17.55;27.07;98078.94;5022091;28;20532;-94
2022/12/13 11:16:21;;;;;;;2.45;1.80;;;;;;;17.55;27.05;98076.25;5041924;28;20319;-94
2022/12/13 11:18:51;;;;;;;1.77;1.55;;;;;;;17.59;26.84;98082.66;5049347;28;20036;-93
2022/12/13 11:21:24;;;;;;;1.75;1.30;;;;;;;17.67;27.03;98114.44;5031899;28;20521;-93
2022/12/13 11:23:49;;;;;;;1.37;1.10;;;;;;;17.61;27.13;98091.31;5043308;28;20024;-94
2022/12/13 11:26:19;;;;;;;2.95;1.52;;;;;;;17.57;26.90;98079.44;5039942;28;20390;-94
2022/12/13 11:29:25;;;;;;;1.67;1.35;;;;;;;17.49;27.14;98078.22;5014140;28;20049;-94
2022/12/13 11:32:10;;;;;;;1.48;1.20;;;;;;;17.70;27.08;98108.47;5047137;28;20041;-94
2022/12/13 11:35:23;;;;;;;1.50;1.20;;;;;;;17.56;27.12;98085.97;5048810;28;20551;-94
2022/12/13 11:38:03;;;;;;;1.40;1.30;;;;;;;17.57;27.05;98087.56;5004975;28;20045;-93
2022/12/13 11:40:31;;;;;;;2.13;1.55;;;;;;;17.55;27.25;98089.75;5019649;28;20035;-93
2022/12/13 11:43:01;;;;;;;1.60;1.27;;;;;;;17.69;27.11;98106.03;5046419;28;20032;-93
2022/12/13 11:45:45;;;;;;;1.85;1.45;;;;;;;17.57;27.02;98082.16;5032873;28;20171;-94
2022/12/13 11:48:13;;;;;;;2.33;1.58;;;;;;;17.66;27.34;98096.63;5036074;28;20021;-94
2022/12/13 11:50:47;;;;;;;2.38;1.50;;;;;;;17.64;27.23;98093.41;5048170;28;20029;-93